Time;durP1;ratioP1;P1;durP2;ratioP2;P2;SDS_P1;SDS_P2;PMS_P1;PMS_P2;Temp;Humidity;BMP_temperature;BMP_pressure;BME280_temperature;BME280_humidity;BME280_pressure;Samples;Min_cycle;Max_cycle;Signal;HPM_P1;HPM_P2
2021/10/21 00:00:30;;;;;;;4.13;2.93;;;;;;;16.67;70.85;98687.47;5094173;28;20213;-79
2021/10/21 00:02:59;;;;;;;3.57;2.93;;;;;;;16.71;70.82;98679.03;5093548;28;20206;-77
2021/10/21 00:05:25;;;;;;;3.37;3.07;;;;;;;16.72;70.75;98686.09;5096813;28;20264;-79
2021/10/21 00:07:52;;;;;;;4.37;2.83;;;;;;;16.74;70.78;98681.38;5092023;28;20237;-78
2021/10/21 00:10:19;;;;;;;4.20;3.40;;;;;;;16.74;70.68;98674.13;5090841;28;20206;-79
2021/10/21 00:12:45;;;;;;;4.60;3.70;;;;;;;16.74;70.80;98671.44;5091814;28;20214;-79
2021/10/21 00:15:13;;;;;;;5.70;3.03;;;;;;;16.74;70.66;98666.06;5095363;28;20226;-79
2021/10/21 00:17:41;;;;;;;6.50;4.37;;;;;;;16.75;70.86;98645.41;5079054;28;20198;-79
2021/10/21 00:20:10;;;;;;;5.03;3.67;;;;;;;16.73;71.03;98650.97;5085241;28;20264;-79
2021/10/21 00:22:37;;;;;;;5.80;3.97;;;;;;;16.72;71.07;98632.31;5079588;28;20213;-79
2021/10/21 00:25:04;;;;;;;5.00;3.10;;;;;;;16.76;71.25;98623.72;5079348;28;20309;-79
2021/10/21 00:27:30;;;;;;;5.37;3.30;;;;;;;16.77;71.13;98609.25;5085792;28;20225;-79
2021/10/21 00:29:57;;;;;;;4.77;3.73;;;;;;;16.79;71.08;98607.22;5092282;28;20205;-78
2021/10/21 00:32:23;;;;;;;5.90;4.10;;;;;;;16.76;71.27;98583.41;5083735;28;20212;-79
2021/10/21 00:34:51;;;;;;;4.93;3.30;;;;;;;16.76;71.51;98579.88;5077836;28;20225;-77
2021/10/21 00:37:17;;;;;;;7.67;4.30;;;;;;;16.77;71.27;98582.38;5076806;28;20216;-78
2021/10/21 00:39:44;;;;;;;5.17;4.17;;;;;;;16.77;71.42;98570.78;5091939;28;20208;-79
2021/10/21 00:42:11;;;;;;;4.73;3.67;;;;;;;16.75;71.36;98557.53;5086497;28;20927;-79
2021/10/21 00:44:37;;;;;;;4.20;3.53;;;;;;;16.73;71.47;98540.75;5078312;28;20222;-79
2021/10/21 00:47:04;;;;;;;6.00;3.40;;;;;;;16.72;71.59;98533.72;5087606;28;20237;-78
2021/10/21 00:49:30;;;;;;;4.40;3.37;;;;;;;16.73;71.57;98496.91;5081244;28;20226;-79
2021/10/21 00:51:58;;;;;;;5.23;3.57;;;;;;;16.71;71.80;98507.03;5081997;28;20231;-79
2021/10/21 00:54:25;;;;;;;3.97;2.93;;;;;;;16.70;71.76;98492.75;5092872;28;20391;-78
2021/10/21 00:56:53;;;;;;;4.23;2.93;;;;;;;16.71;71.78;98472.91;5088651;28;20191;-79
2021/10/21 00:59:20;;;;;;;5.30;4.03;;;;;;;16.71;71.90;98472.91;5087917;28;20212;-79
2021/10/21 01:01:47;;;;;;;5.30;3.73;;;;;;;16.71;71.59;98464.00;5094345;28;20213;-78
2021/10/21 01:04:14;;;;;;;4.17;2.90;;;;;;;16.70;71.84;98443.53;5076747;28;20231;-78
2021/10/21 01:06:41;;;;;;;4.97;2.87;;;;;;;16.70;71.77;98430.91;5090560;28;20835;-77
2021/10/21 01:09:10;;;;;;;4.87;3.13;;;;;;;16.71;71.96;98429.91;5079995;28;20206;-78
2021/10/21 01:11:36;;;;;;;4.53;2.30;;;;;;;16.70;71.93;98413.97;5076666;28;20221;-79
2021/10/21 01:14:05;;;;;;;4.10;2.47;;;;;;;16.71;71.81;98415.63;5076575;28;20226;-79
2021/10/21 01:16:32;;;;;;;4.40;2.70;;;;;;;16.72;71.78;98388.56;5077532;28;20216;-78
2021/10/21 01:18:59;;;;;;;5.23;2.73;;;;;;;16.73;71.67;98370.59;5075815;28;20280;-78
2021/10/21 01:21:27;;;;;;;4.80;2.80;;;;;;;16.74;71.73;98356.13;5087887;28;20198;-79
2021/10/21 01:23:53;;;;;;;3.87;2.00;;;;;;;16.73;71.95;98346.38;5081840;28;20230;-79
2021/10/21 01:26:20;;;;;;;6.47;3.33;;;;;;;16.71;71.94;98325.06;5077546;28;20222;-79
2021/10/21 01:28:46;;;;;;;3.30;2.40;;;;;;;16.69;72.00;98315.53;5079071;28;20218;-80
2021/10/21 01:31:13;;;;;;;3.27;2.77;;;;;;;16.67;72.03;98311.19;5080977;28;20211;-80
2021/10/21 01:33:39;;;;;;;4.83;2.93;;;;;;;16.67;72.19;98296.91;5085292;28;20201;-79
2021/10/21 01:36:11;;;;;;;3.03;2.70;;;;;;;16.65;72.17;98289.06;5084582;28;20201;-80
2021/10/21 01:38:39;;;;;;;3.37;2.60;;;;;;;16.63;72.38;98290.28;5082463;28;20214;-79
2021/10/21 01:41:05;;;;;;;4.10;2.40;;;;;;;16.64;72.34;98284.72;5091287;28;20206;-78
2021/10/21 01:43:32;;;;;;;2.73;2.47;;;;;;;16.63;72.47;98285.75;5088606;28;20236;-78
2021/10/21 01:45:58;;;;;;;2.80;2.43;;;;;;;16.62;72.50;98277.84;5091400;28;20575;-79
2021/10/21 01:48:25;;;;;;;2.57;2.10;;;;;;;16.62;72.38;98262.56;5080740;28;20234;-78
2021/10/21 01:50:51;;;;;;;5.13;2.40;;;;;;;16.61;72.51;98255.50;5078563;28;20208;-78
2021/10/21 01:53:18;;;;;;;2.77;2.17;;;;;;;16.63;72.37;98241.91;5084970;28;20217;-78
2021/10/21 01:55:46;;;;;;;4.27;2.60;;;;;;;16.63;72.45;98256.19;5086654;28;20227;-79
2021/10/21 01:58:13;;;;;;;4.50;2.57;;;;;;;16.63;72.18;98239.22;5075581;28;20221;-78
2021/10/21 02:00:39;;;;;;;4.03;2.70;;;;;;;16.61;72.47;98244.75;5081389;28;20303;-78
2021/10/21 02:03:06;;;;;;;3.20;2.37;;;;;;;16.64;72.48;98244.41;5092332;28;20217;-85
2021/10/21 02:05:33;;;;;;;3.93;2.80;;;;;;;16.68;72.26;98244.84;5097156;28;20236;-85
2021/10/21 02:07:59;;;;;;;3.27;2.50;;;;;;;16.69;72.07;98232.22;5094416;28;20229;-85
2021/10/21 02:10:26;;;;;;;2.60;2.40;;;;;;;16.71;71.93;98243.63;5084188;28;20213;-85
2021/10/21 02:12:54;;;;;;;2.20;1.80;;;;;;;16.74;71.89;98259.34;5077742;28;20219;-84
2021/10/21 02:15:20;;;;;;;2.57;2.00;;;;;;;16.78;71.96;98257.94;5082614;28;20231;-85
2021/10/21 02:17:48;;;;;;;3.67;2.50;;;;;;;16.79;72.13;98246.19;5087726;28;20198;-85
2021/10/21 02:20:16;;;;;;;5.83;2.70;;;;;;;16.78;72.35;98242.66;5094832;28;20305;-86
2021/10/21 02:22:44;;;;;;;3.63;2.20;;;;;;;16.78;72.73;98231.91;5090596;28;20214;-84
2021/10/21 02:25:12;;;;;;;3.40;1.97;;;;;;;16.74;73.09;98213.66;5085191;28;20276;-85
2021/10/21 02:27:39;;;;;;;2.90;2.10;;;;;;;16.67;73.35;98203.69;5098444;28;20619;-84
2021/10/21 02:30:09;;;;;;;2.30;2.10;;;;;;;16.60;73.87;98201.97;5105225;28;20202;-84
2021/10/21 02:32:36;;;;;;;2.80;1.97;;;;;;;16.55;74.08;98172.16;5095562;28;20659;-84
2021/10/21 02:35:03;;;;;;;7.13;2.37;;;;;;;16.49;74.20;98175.59;5092145;28;20221;-84
2021/10/21 02:37:30;;;;;;;2.83;1.83;;;;;;;16.43;74.59;98169.16;5088181;28;20696;-84
2021/10/21 02:39:56;;;;;;;5.00;1.87;;;;;;;16.35;74.83;98137.06;5078394;28;20209;-84
2021/10/21 02:42:23;;;;;;;2.87;1.80;;;;;;;16.28;75.07;98120.91;5104109;28;20979;-84
2021/10/21 02:44:49;;;;;;;2.77;2.00;;;;;;;16.22;75.08;98110.94;5079664;28;20218;-85
2021/10/21 02:47:17;;;;;;;2.00;1.80;;;;;;;16.18;75.16;98116.88;5076837;28;20240;-85
2021/10/21 02:49:44;;;;;;;2.00;1.40;;;;;;;16.11;75.58;98087.31;5082850;28;20749;-84
2021/10/21 02:52:11;;;;;;;3.03;1.70;;;;;;;16.05;75.56;98036.25;5085594;28;20264;-86
2021/10/21 02:54:38;;;;;;;3.33;1.90;;;;;;;15.98;75.82;98022.75;5086317;28;20224;-85
2021/10/21 02:57:05;;;;;;;2.67;1.57;;;;;;;15.93;76.00;98009.13;5078813;28;20222;-85
2021/10/21 02:59:31;;;;;;;2.13;1.60;;;;;;;15.87;76.03;98012.56;5077045;28;20221;-85
2021/10/21 03:01:58;;;;;;;2.63;1.30;;;;;;;15.83;75.80;98012.13;5091540;28;20216;-85
2021/10/21 03:04:26;;;;;;;3.20;1.37;;;;;;;15.81;76.01;97997.25;5086527;28;20308;-85
2021/10/21 03:06:52;;;;;;;2.13;1.30;;;;;;;15.73;76.02;98000.06;5090071;28;20204;-85
2021/10/21 03:09:19;;;;;;;1.73;1.30;;;;;;;15.69;76.29;98005.00;5089165;28;20223;-85
2021/10/21 03:11:45;;;;;;;1.60;1.17;;;;;;;15.69;75.90;97996.94;5097671;28;20208;-85
2021/10/21 03:14:12;;;;;;;1.30;0.90;;;;;;;15.70;75.61;97982.50;5094372;28;20332;-84
2021/10/21 03:16:39;;;;;;;1.07;0.97;;;;;;;15.68;75.68;97983.72;5081439;28;20207;-85
2021/10/21 03:19:08;;;;;;;1.33;1.00;;;;;;;15.65;75.48;97968.84;5091981;28;20205;-84
2021/10/21 03:21:36;;;;;;;1.57;1.00;;;;;;;15.59;75.32;97950.81;5085570;28;20217;-84
2021/10/21 03:24:03;;;;;;;1.30;1.10;;;;;;;15.57;75.36;97956.41;5097831;28;20256;-84
2021/10/21 03:26:29;;;;;;;0.87;0.80;;;;;;;15.57;75.21;97940.31;5096407;28;20214;-84
2021/10/21 03:28:56;;;;;;;1.80;0.80;;;;;;;15.55;75.55;97912.84;5097987;28;20228;-86
2021/10/21 03:31:23;;;;;;;2.17;1.17;;;;;;;15.57;74.89;97909.97;5083494;28;20204;-85
2021/10/21 03:33:49;;;;;;;0.93;0.80;;;;;;;15.55;74.46;97918.22;5097713;28;20230;-85
2021/10/21 03:36:16;;;;;;;1.93;0.70;;;;;;;15.53;73.93;97928.28;5083970;28;20300;-83
2021/10/21 03:38:44;;;;;;;0.80;0.60;;;;;;;15.58;73.23;97930.41;5086930;28;20284;-82
2021/10/21 03:41:11;;;;;;;1.33;0.70;;;;;;;15.59;73.19;97937.41;5087869;28;20210;-82
2021/10/21 03:43:38;;;;;;;1.57;0.80;;;;;;;15.56;72.71;97954.75;5091900;28;20202;-82
2021/10/21 03:46:04;;;;;;;1.30;1.00;;;;;;;15.58;72.20;97958.06;5074821;28;20219;-82
2021/10/21 03:48:31;;;;;;;0.97;0.93;;;;;;;15.62;71.88;97963.84;5091952;28;20229;-82
2021/10/21 03:50:57;;;;;;;1.50;0.90;;;;;;;15.63;71.59;97952.09;5079462;28;20210;-82
2021/10/21 03:53:24;;;;;;;1.10;1.00;;;;;;;15.58;71.56;97949.19;5090928;28;20215;-84
2021/10/21 03:55:54;;;;;;;1.53;0.87;;;;;;;15.57;71.44;97944.84;5084773;28;20257;-84
2021/10/21 03:58:20;;;;;;;2.20;0.70;;;;;;;15.54;71.17;97939.84;5083170;28;20209;-84
2021/10/21 04:00:47;;;;;;;1.17;0.70;;;;;;;15.54;69.50;97962.13;5095473;28;20240;-85
2021/10/21 04:03:14;;;;;;;0.50;0.50;;;;;;;15.51;69.60;97951.78;5091081;28;20201;-83
2021/10/21 04:05:40;;;;;;;1.70;0.80;;;;;;;15.52;69.42;97947.25;5090152;28;20233;-83
2021/10/21 04:08:07;;;;;;;0.60;0.50;;;;;;;15.48;69.36;97943.28;5087372;28;20232;-84
2021/10/21 04:10:34;;;;;;;1.63;0.53;;;;;;;15.47;68.97;97947.00;5080962;28;20580;-83
2021/10/21 04:13:01;;;;;;;0.87;0.60;;;;;;;15.48;68.30;97948.66;5084302;28;20216;-81
2021/10/21 04:15:28;;;;;;;0.90;0.43;;;;;;;15.43;66.31;97967.16;5083459;28;20695;-82
2021/10/21 04:17:55;;;;;;;1.00;0.70;;;;;;;15.44;66.42;97983.06;5080155;28;20575;-83
2021/10/21 04:20:22;;;;;;;2.50;0.77;;;;;;;15.46;65.75;97953.38;5093005;28;20218;-82
2021/10/21 04:22:49;;;;;;;2.20;0.77;;;;;;;15.44;65.52;97944.69;5090538;28;20651;-83
2021/10/21 04:25:16;;;;;;;3.47;0.70;;;;;;;15.42;64.38;97970.88;5084840;28;20220;-83
2021/10/21 04:27:43;;;;;;;1.47;0.80;;;;;;;15.40;63.94;97989.88;5080896;28;20326;-84
2021/10/21 04:30:12;;;;;;;1.60;0.70;;;;;;;15.34;63.51;98008.56;5084471;28;20211;-83
2021/10/21 04:32:39;;;;;;;1.67;1.10;;;;;;;15.29;64.66;98004.59;5091420;28;20724;-83
2021/10/21 04:35:07;;;;;;;2.27;1.00;;;;;;;15.31;65.92;98004.41;5078219;28;20245;-84
2021/10/21 04:37:33;;;;;;;2.03;0.70;;;;;;;15.27;66.29;98009.31;5091427;28;20572;-83
2021/10/21 04:40:00;;;;;;;2.00;0.80;;;;;;;15.24;66.32;98017.75;5088544;28;20719;-82
2021/10/21 04:42:27;;;;;;;0.90;0.47;;;;;;;15.13;64.75;98034.34;5079636;28;20561;-84
2021/10/21 04:44:54;;;;;;;1.57;0.40;;;;;;;14.89;61.69;98005.19;5089205;28;20240;-83
2021/10/21 04:47:22;;;;;;;0.53;0.30;;;;;;;14.81;61.37;98030.25;5088685;28;20213;-83
2021/10/21 04:49:48;;;;;;;2.00;0.37;;;;;;;14.67;58.79;98035.66;5081051;28;20220;-82
2021/10/21 04:52:15;;;;;;;3.90;0.60;;;;;;;14.56;57.85;98021.69;5080872;28;20205;-83
2021/10/21 04:54:42;;;;;;;1.03;0.20;;;;;;;14.53;57.94;98022.06;5082818;28;20708;-83
2021/10/21 04:57:08;;;;;;;1.00;0.47;;;;;;;14.47;57.02;98035.38;5078148;28;20294;-83
2021/10/21 04:59:35;;;;;;;1.40;0.40;;;;;;;14.43;56.38;98042.13;5079219;28;20558;-83
2021/10/21 05:02:02;;;;;;;1.80;0.20;;;;;;;14.49;57.13;98034.19;5081616;28;20218;-83
2021/10/21 05:04:29;;;;;;;2.50;0.50;;;;;;;14.46;56.70;98037.22;5085547;28;20688;-82
2021/10/21 05:07:02;;;;;;;2.10;0.30;;;;;;;14.47;56.71;98025.50;5089171;28;20299;-82
2021/10/21 05:09:31;;;;;;;2.57;0.43;;;;;;;14.50;56.77;98027.81;5086289;28;20212;-82
2021/10/21 05:11:57;;;;;;;3.13;0.47;;;;;;;14.46;56.74;98026.50;5085331;28;20208;-82
2021/10/21 05:14:24;;;;;;;1.13;0.40;;;;;;;14.48;56.96;98012.94;5084394;28;20240;-85
2021/10/21 05:16:50;;;;;;;1.03;0.40;;;;;;;14.47;56.96;98022.81;5081830;28;20200;-84
2021/10/21 05:19:19;;;;;;;3.27;0.70;;;;;;;14.45;57.10;98005.28;5076773;28;20205;-83
2021/10/21 05:21:47;;;;;;;7.27;0.63;;;;;;;14.50;56.71;98010.91;5076032;28;20197;-83
2021/10/21 05:24:13;;;;;;;1.40;0.30;;;;;;;14.48;56.51;97999.56;5077584;28;20316;-83
2021/10/21 05:26:40;;;;;;;1.63;0.30;;;;;;;14.50;56.66;98010.91;5085527;28;20200;-83
2021/10/21 05:29:06;;;;;;;1.87;0.20;;;;;;;14.46;56.77;97991.69;5086585;28;20314;-82
2021/10/21 05:31:33;;;;;;;2.20;0.40;;;;;;;14.43;57.18;97999.28;5087112;28;20207;-83
2021/10/21 05:33:59;;;;;;;3.67;0.50;;;;;;;14.37;57.20;97987.41;5083119;28;20224;-83
2021/10/21 05:36:26;;;;;;;0.83;0.20;;;;;;;14.38;57.37;97993.59;5078484;28;20208;-82
2021/10/21 05:38:54;;;;;;;2.57;0.53;;;;;;;14.38;57.37;97985.56;5082403;28;20296;-83
2021/10/21 05:41:20;;;;;;;2.27;0.67;;;;;;;14.40;57.11;97981.72;5077125;28;20224;-84
2021/10/21 05:43:47;;;;;;;0.80;0.30;;;;;;;14.40;56.99;97981.72;5085137;28;20571;-84
2021/10/21 05:46:13;;;;;;;1.80;0.20;;;;;;;14.36;56.63;97977.72;5082558;28;20208;-83
2021/10/21 05:48:40;;;;;;;1.93;0.40;;;;;;;14.36;57.03;97972.38;5088362;28;20219;-86
2021/10/21 05:51:08;;;;;;;1.50;0.33;;;;;;;14.38;56.83;97972.19;5079663;28;20204;-85
2021/10/21 05:53:36;;;;;;;1.03;0.43;;;;;;;14.36;57.32;97967.00;5078821;28;20211;-83
2021/10/21 05:56:04;;;;;;;4.47;0.50;;;;;;;14.37;57.61;97978.56;5077490;28;20204;-82
2021/10/21 05:58:31;;;;;;;1.17;0.20;;;;;;;14.36;57.26;97964.34;5085183;28;20693;-82
2021/10/21 06:01:00;;;;;;;2.63;0.40;;;;;;;14.37;57.41;97955.28;5087584;28;20208;-83
2021/10/21 06:03:35;;;;;;;3.80;0.37;;;;;;;14.36;56.86;97956.31;5076245;28;20209;-83
2021/10/21 06:06:02;;;;;;;0.73;0.50;;;;;;;14.36;56.64;97897.41;5087713;28;20204;-83
2021/10/21 06:08:29;;;;;;;0.40;0.20;;;;;;;14.39;56.49;97949.75;5081901;28;20221;-81
2021/10/21 06:10:58;;;;;;;1.37;0.20;;;;;;;14.37;56.45;97986.59;5081941;28;20685;-83
2021/10/21 06:13:26;;;;;;;0.90;0.30;;;;;;;14.38;56.57;97986.41;5085658;28;20201;-83
2021/10/21 06:15:55;;;;;;;0.67;0.20;;;;;;;14.39;56.60;97980.03;5082547;28;20320;-82
2021/10/21 06:18:22;;;;;;;3.33;0.47;;;;;;;14.42;56.16;98003.78;5084247;28;20251;-83
2021/10/21 06:20:48;;;;;;;1.00;0.20;;;;;;;14.37;57.23;97966.00;5078086;28;20209;-82
2021/10/21 06:23:15;;;;;;;0.70;0.20;;;;;;;14.41;58.48;97985.22;5084042;28;20295;-83
2021/10/21 06:25:41;;;;;;;6.33;0.50;;;;;;;14.36;58.86;97977.72;5083712;28;20694;-83
2021/10/21 06:28:08;;;;;;;1.63;0.30;;;;;;;14.30;58.85;97981.16;5083210;28;20201;-82
2021/10/21 06:30:37;;;;;;;1.30;0.30;;;;;;;14.24;59.23;97988.06;5087266;28;20651;-83
2021/10/21 06:33:05;;;;;;;3.70;0.77;;;;;;;14.21;60.02;97988.44;5083957;28;20295;-83
2021/10/21 06:35:32;;;;;;;0.83;0.20;;;;;;;14.18;60.86;98007.53;5083160;28;20225;-82
2021/10/21 06:37:58;;;;;;;1.90;0.40;;;;;;;14.17;61.67;97992.50;5089976;28;20291;-83
2021/10/21 06:40:28;;;;;;;1.13;0.50;;;;;;;14.10;62.81;97991.59;5090704;28;20196;-83
2021/10/21 06:42:56;;;;;;;1.43;0.30;;;;;;;14.02;63.32;98004.22;5083442;28;20682;-83
2021/10/21 06:45:23;;;;;;;2.97;0.43;;;;;;;13.96;63.83;98010.31;5081700;28;20224;-83
2021/10/21 06:47:53;;;;;;;1.83;0.57;;;;;;;13.89;64.71;98005.69;5085858;28;20201;-84
2021/10/21 06:50:22;;;;;;;1.80;0.33;;;;;;;13.81;65.69;98007.59;5081092;28;20584;-83
2021/10/21 06:52:53;;;;;;;2.30;0.37;;;;;;;13.74;66.24;98006.66;5080704;28;20209;-84
2021/10/21 06:55:20;;;;;;;2.00;0.50;;;;;;;13.63;66.84;97989.19;5087005;28;20777;-84
2021/10/21 06:57:48;;;;;;;1.67;0.40;;;;;;;13.52;68.02;97998.50;5086350;28;20243;-85
2021/10/21 07:00:15;;;;;;;1.90;0.37;;;;;;;13.46;67.99;98001.88;5083191;28;20299;-83
2021/10/21 07:02:42;;;;;;;1.73;0.50;;;;;;;13.38;68.77;98007.31;5080655;28;20725;-83
2021/10/21 07:05:12;;;;;;;2.67;0.40;;;;;;;13.33;69.29;98000.81;5082515;28;20689;-82
2021/10/21 07:07:39;;;;;;;1.60;0.60;;;;;;;13.23;69.40;98006.44;5087377;28;20283;-83
2021/10/21 07:10:06;;;;;;;3.33;0.50;;;;;;;13.15;69.65;98018.00;5081982;28;20220;-86
2021/10/21 07:12:33;;;;;;;1.97;0.33;;;;;;;13.12;69.70;98020.97;5082227;28;20200;-82
2021/10/21 07:15:02;;;;;;;1.00;0.40;;;;;;;13.10;70.21;98020.31;5087238;28;20228;-83
2021/10/21 07:17:29;;;;;;;4.90;0.60;;;;;;;13.09;70.00;98017.81;5090320;28;20629;-82
2021/10/21 07:19:55;;;;;;;2.03;0.30;;;;;;;13.08;69.92;98008.97;5090086;28;20200;-83
2021/10/21 07:22:23;;;;;;;0.47;0.27;;;;;;;13.10;70.00;98017.66;5086906;28;20205;-83
2021/10/21 07:24:50;;;;;;;2.33;0.30;;;;;;;13.09;70.19;98041.88;5083475;28;20305;-83
2021/10/21 07:27:16;;;;;;;0.57;0.20;;;;;;;13.09;69.97;98017.81;5076333;28;20209;-83
2021/10/21 07:29:43;;;;;;;1.33;0.30;;;;;;;13.11;69.72;98034.50;5081429;28;20588;-84
2021/10/21 07:32:09;;;;;;;0.63;0.10;;;;;;;13.10;69.49;98049.72;5084227;28;20261;-84
2021/10/21 07:34:38;;;;;;;0.83;0.20;;;;;;;13.07;69.67;98046.59;5083447;28;20312;-84
2021/10/21 07:37:05;;;;;;;0.80;0.07;;;;;;;13.06;70.10;98060.97;5083512;28;20735;-83
2021/10/21 07:39:32;;;;;;;0.83;0.10;;;;;;;13.06;70.28;98074.31;5082637;28;20642;-83
2021/10/21 07:42:01;;;;;;;1.90;0.30;;;;;;;13.09;70.34;98069.44;5080270;28;20208;-83
2021/10/21 07:44:30;;;;;;;1.30;0.37;;;;;;;13.09;70.48;98084.63;5090038;28;20220;-83
2021/10/21 07:46:57;;;;;;;1.60;0.20;;;;;;;13.12;70.44;98079.78;5082298;28;20689;-83
2021/10/21 07:49:23;;;;;;;2.07;0.20;;;;;;;13.15;70.82;98083.97;5079046;28;20228;-84
2021/10/21 07:51:50;;;;;;;1.23;0.30;;;;;;;13.17;70.24;98098.81;5083371;28;20210;-83
2021/10/21 07:54:16;;;;;;;0.70;0.20;;;;;;;13.17;70.58;98098.81;5080561;28;20228;-82
2021/10/21 07:56:44;;;;;;;0.37;0.10;;;;;;;13.27;70.00;98103.09;5083160;28;20197;-83
2021/10/21 07:59:11;;;;;;;0.80;0.23;;;;;;;13.35;70.13;98113.75;5084995;28;20794;-83
2021/10/21 08:01:38;;;;;;;1.47;0.20;;;;;;;13.47;70.11;98110.50;5085689;28;20215;-83
2021/10/21 08:04:04;;;;;;;0.00;0.00;;;;;;;13.57;69.53;98109.44;5080627;28;20589;-83
2021/10/21 08:06:33;;;;;;;1.13;0.10;;;;;;;13.63;69.32;98092.66;5083952;28;20219;-83
2021/10/21 08:09:02;;;;;;;1.00;0.10;;;;;;;13.68;68.74;98125.91;5081010;28;20231;-83
2021/10/21 08:11:29;;;;;;;0.83;0.10;;;;;;;13.82;68.53;98151.03;5079633;28;20209;-82
2021/10/21 08:13:57;;;;;;;0.30;0.00;;;;;;;13.80;67.71;98148.53;5085306;28;20694;-83
2021/10/21 08:16:23;;;;;;;1.73;0.10;;;;;;;13.77;68.33;98154.28;5080095;28;20208;-83
2021/10/21 08:18:50;;;;;;;0.70;0.13;;;;;;;13.65;68.44;98161.03;5078653;28;20217;-85
2021/10/21 08:21:17;;;;;;;1.60;0.13;;;;;;;13.63;68.10;98171.06;5078954;28;20201;-84
2021/10/21 08:23:44;;;;;;;1.00;0.00;;;;;;;13.61;68.88;98183.81;5082346;28;20230;-84
2021/10/21 08:26:10;;;;;;;0.30;0.00;;;;;;;13.47;69.46;98184.53;5080063;28;20770;-85
2021/10/21 08:28:37;;;;;;;0.57;0.10;;;;;;;13.40;70.21;98221.00;5080452;28;20231;-85
2021/10/21 08:31:05;;;;;;;1.97;0.67;;;;;;;13.28;71.66;98366.72;5078319;28;20315;-84
2021/10/21 08:33:31;;;;;;;4.37;1.27;;;;;;;13.11;70.95;98363.22;5079869;28;20211;-82
2021/10/21 08:35:58;;;;;;;1.03;0.30;;;;;;;12.83;70.10;98384.09;5083128;28;20250;-84
2021/10/21 08:38:24;;;;;;;2.07;0.43;;;;;;;12.51;70.08;98399.09;5078879;28;20256;-81
2021/10/21 08:40:51;;;;;;;2.53;0.50;;;;;;;12.29;71.11;98410.38;5073642;28;20212;-82
2021/10/21 08:43:17;;;;;;;0.73;0.40;;;;;;;12.13;71.45;98418.34;5081705;28;20638;-83
2021/10/21 08:45:47;;;;;;;0.33;0.10;;;;;;;11.96;71.70;98435.28;5082962;28;20227;-83
2021/10/21 08:48:15;;;;;;;0.40;0.10;;;;;;;11.85;72.39;98448.88;5080216;28;20586;-83
2021/10/21 08:50:42;;;;;;;0.33;0.20;;;;;;;11.70;72.83;98470.75;5078740;28;20229;-85
2021/10/21 08:53:08;;;;;;;1.23;0.20;;;;;;;11.62;73.09;98489.38;5085141;28;20295;-85
2021/10/21 08:55:35;;;;;;;0.37;0.13;;;;;;;11.52;73.52;98509.13;5088148;28;20316;-85
2021/10/21 08:58:03;;;;;;;2.37;0.30;;;;;;;11.44;73.90;98515.25;5079821;28;20574;-85
2021/10/21 09:00:31;;;;;;;0.37;0.20;;;;;;;11.26;74.54;98541.06;5084695;28;20662;-84
2021/10/21 09:03:01;;;;;;;1.73;0.37;;;;;;;11.18;75.13;98559.63;5082766;28;20208;-84
2021/10/21 09:05:32;;;;;;;0.40;0.23;;;;;;;11.10;75.47;98573.72;5081202;28;20228;-84
2021/10/21 09:08:11;;;;;;;0.43;0.20;;;;;;;11.04;75.65;98593.81;5081648;28;20261;-84
2021/10/21 09:10:49;;;;;;;0.40;0.20;;;;;;;10.99;76.17;98614.72;5079967;28;20221;-83
2021/10/21 09:13:20;;;;;;;0.40;0.20;;;;;;;10.95;76.50;98639.13;5080352;28;20573;-84
2021/10/21 09:15:50;;;;;;;1.10;0.27;;;;;;;10.85;77.22;98649.84;5087947;28;20243;-85
2021/10/21 09:18:17;;;;;;;0.93;0.30;;;;;;;10.80;77.98;98676.06;5082580;28;20201;-84
2021/10/21 09:20:47;;;;;;;0.50;0.10;;;;;;;10.80;77.90;98673.41;5080752;28;20197;-85
2021/10/21 09:23:16;;;;;;;1.30;0.53;;;;;;;10.78;78.42;98704.66;5081327;28;20656;-84
2021/10/21 09:25:44;;;;;;;0.87;0.20;;;;;;;10.74;78.21;98725.44;5082097;28;20232;-84
2021/10/21 09:28:23;;;;;;;1.37;0.23;;;;;;;10.71;78.55;98739.03;5080866;28;20228;-83
2021/10/21 09:30:56;;;;;;;0.50;0.20;;;;;;;10.66;78.95;98753.75;5077794;28;20212;-84
2021/10/21 09:33:23;;;;;;;0.80;0.10;;;;;;;10.62;79.13;98755.84;5084077;28;20222;-85
2021/10/21 09:35:57;;;;;;;1.30;0.20;;;;;;;10.59;79.61;98769.44;5077398;28;20220;-83
2021/10/21 09:38:27;;;;;;;0.87;0.20;;;;;;;10.59;79.44;98777.44;5081438;28;20250;-85
2021/10/21 09:40:55;;;;;;;0.23;0.20;;;;;;;10.60;79.83;98783.59;5079352;28;20215;-85
2021/10/21 09:43:29;;;;;;;0.87;0.40;;;;;;;10.62;79.53;98797.59;5087031;28;20255;-85
2021/10/21 09:45:55;;;;;;;0.50;0.40;;;;;;;10.66;79.84;98804.31;5078196;28;20223;-85
2021/10/21 09:48:23;;;;;;;0.53;0.50;;;;;;;10.70;80.25;98808.38;5088419;28;20204;-86
2021/10/21 09:50:51;;;;;;;1.77;0.50;;;;;;;10.74;80.12;98823.94;5088603;28;20269;-83
2021/10/21 09:53:20;;;;;;;0.43;0.30;;;;;;;10.77;80.69;98822.78;5086825;28;20793;-84
2021/10/21 09:55:49;;;;;;;0.63;0.50;;;;;;;10.79;80.35;98834.16;5090174;28;20763;-84
2021/10/21 09:58:17;;;;;;;0.67;0.30;;;;;;;10.89;80.37;98831.47;5049087;28;1078557;-84
2021/10/21 10:00:44;;;;;;;1.23;0.60;;;;;;;10.93;80.41;98848.84;5086624;28;20266;-84
2021/10/21 10:03:16;;;;;;;0.60;0.40;;;;;;;10.97;80.32;98856.41;5090015;28;20207;-85
2021/10/21 10:05:50;;;;;;;1.13;0.50;;;;;;;11.03;80.25;98874.50;5084660;28;20225;-86
2021/10/21 10:08:20;;;;;;;0.70;0.30;;;;;;;11.03;79.67;98892.28;5086208;28;20197;-84
2021/10/21 10:10:49;;;;;;;3.07;0.60;;;;;;;10.94;78.57;98888.66;5087386;28;20216;-85
2021/10/21 10:13:17;;;;;;;1.27;0.40;;;;;;;10.93;78.96;98902.09;5084908;28;20212;-85
2021/10/21 10:15:45;;;;;;;0.50;0.50;;;;;;;10.92;79.35;98895.97;5092400;28;20236;-84
2021/10/21 10:18:17;;;;;;;2.27;0.40;;;;;;;10.92;79.36;98906.63;5090707;28;20640;-84
2021/10/21 10:20:46;;;;;;;0.70;0.43;;;;;;;10.94;79.52;98917.94;5092638;28;20636;-84
2021/10/21 10:23:13;;;;;;;3.37;0.70;;;;;;;10.97;79.79;98932.81;5091663;28;20291;-85
2021/10/21 10:25:46;;;;;;;2.07;0.63;;;;;;;10.98;80.18;98930.00;5097037;28;20236;-84
2021/10/21 10:28:13;;;;;;;1.47;0.63;;;;;;;10.96;79.98;98942.63;5077622;28;20205;-85
2021/10/21 10:30:45;;;;;;;3.53;1.00;;;;;;;10.95;80.66;98954.25;5077284;28;20235;-85
2021/10/21 10:33:12;;;;;;;3.13;0.80;;;;;;;11.02;80.57;98952.72;5088033;28;20200;-84
2021/10/21 10:35:39;;;;;;;3.60;0.77;;;;;;;11.05;80.26;98967.59;5094648;28;20225;-84
2021/10/21 10:38:08;;;;;;;2.67;0.70;;;;;;;11.09;79.92;98966.31;5077832;28;20205;-85
2021/10/21 10:40:47;;;;;;;6.93;2.20;;;;;;;11.11;79.89;98980.31;5078489;28;20300;-84
2021/10/21 10:43:17;;;;;;;4.13;1.20;;;;;;;11.13;79.33;98987.19;5092711;28;20258;-84
2021/10/21 10:45:46;;;;;;;3.37;1.20;;;;;;;11.21;79.20;99001.66;5076501;28;20239;-85
2021/10/21 10:48:15;;;;;;;5.17;1.00;;;;;;;11.21;78.36;99010.50;5081115;28;20212;-84
2021/10/21 10:50:55;;;;;;;3.50;1.30;;;;;;;11.23;78.17;99000.53;5090992;28;20225;-84
2021/10/21 10:53:48;;;;;;;5.60;1.70;;;;;;;11.20;77.70;99018.63;5082765;28;20241;-84
2021/10/21 10:56:41;;;;;;;5.20;1.60;;;;;;;11.27;77.65;99035.75;5078213;28;20255;-84
2021/10/21 10:59:30;;;;;;;6.57;2.30;;;;;;;11.34;77.82;99042.16;5078551;28;20608;-85
2021/10/21 11:01:58;;;;;;;9.43;3.40;;;;;;;11.37;77.39;99057.88;5083529;28;20210;-85
2021/10/21 11:04:57;;;;;;;7.43;3.93;;;;;;;11.40;77.19;99063.78;5090393;28;20237;-84
2021/10/21 11:07:25;;;;;;;7.03;2.67;;;;;;;11.43;76.76;99066.19;5090852;28;20217;-85
2021/10/21 11:09:52;;;;;;;4.93;1.57;;;;;;;11.49;76.65;99080.75;5083434;28;20228;-85
2021/10/21 11:12:23;;;;;;;3.90;1.63;;;;;;;11.43;75.83;99108.81;5088293;28;20200;-85
2021/10/21 11:14:55;;;;;;;3.03;1.10;;;;;;;11.40;75.56;99098.44;5088835;28;20611;-84
2021/10/21 11:17:45;;;;;;;8.57;2.10;;;;;;;11.39;74.78;99103.91;5086297;28;20203;-84
2021/10/21 11:20:40;;;;;;;5.33;1.93;;;;;;;11.36;74.58;99096.19;5071780;28;20223;-84
2021/10/21 11:23:08;;;;;;;6.50;1.90;;;;;;;11.37;74.73;99104.03;5046706;28;20208;-86
2021/10/21 11:25:37;;;;;;;4.30;1.80;;;;;;;11.33;73.53;99102.63;5087933;28;20223;-84
2021/10/21 11:28:06;;;;;;;8.30;2.07;;;;;;;11.35;73.76;99134.47;5087154;28;20205;-84
2021/10/21 11:30:35;;;;;;;5.43;2.50;;;;;;;11.34;73.33;99127.47;5081528;28;20224;-84
2021/10/21 11:33:04;;;;;;;9.53;3.47;;;;;;;11.34;73.57;99130.13;5081714;28;20201;-84
2021/10/21 11:35:32;;;;;;;6.33;2.40;;;;;;;11.37;73.54;99122.69;5089615;28;20561;-85
2021/10/21 11:38:00;;;;;;;7.33;1.90;;;;;;;11.39;73.62;99130.56;5085136;28;20295;-85